createdAt,value
2023-03-19T00:00:34.265Z,98876.09
2023-03-19T00:03:01.489Z,98871.69
2023-03-19T00:05:28.029Z,98877.56
2023-03-19T00:07:54.733Z,98869.00
2023-03-19T00:10:21.386Z,98871.38
2023-03-19T00:12:47.963Z,98876.00
2023-03-19T00:15:15.304Z,98876.69
2023-03-19T00:17:43.437Z,98876.25
2023-03-19T00:20:12.268Z,98874.53
2023-03-19T00:22:39.895Z,98875.03
2023-03-19T00:25:08.150Z,98882.59
2023-03-19T00:27:34.564Z,98886.19
2023-03-19T00:30:02.529Z,98883.81
2023-03-19T00:32:29.995Z,98888.25
2023-03-19T00:34:56.509Z,98887.31
2023-03-19T00:37:23.910Z,98887.06
2023-03-19T00:39:50.344Z,98885.97
2023-03-19T00:42:16.762Z,98895.31
2023-03-19T00:44:43.185Z,98902.97
2023-03-19T00:47:09.625Z,98896.19
2023-03-19T00:49:36.791Z,98894.38
2023-03-19T00:52:03.417Z,98896.81
2023-03-19T00:54:32.162Z,98896.50
2023-03-19T00:56:58.902Z,98891.75
2023-03-19T00:59:25.426Z,98892.44
2023-03-19T01:01:52.467Z,98895.13
2023-03-19T01:04:19.118Z,98897.34
2023-03-19T01:06:46.178Z,98900.47
2023-03-19T01:09:12.642Z,98898.88
2023-03-19T01:11:39.389Z,98897.63
2023-03-19T01:14:06.316Z,98890.22
2023-03-19T01:16:34.616Z,98887.94
2023-03-19T01:19:01.874Z,98887.91
2023-03-19T01:21:31.234Z,98883.31
2023-03-19T01:23:58.334Z,98873.81
2023-03-19T01:26:24.728Z,98883.16
2023-03-19T01:28:51.119Z,98878.63
2023-03-19T01:31:17.684Z,98881.16
2023-03-19T01:33:44.073Z,98874.72
2023-03-19T01:36:11.115Z,98880.09
2023-03-19T01:38:38.002Z,98869.13
2023-03-19T01:41:04.701Z,98880.44
2023-03-19T01:43:32.616Z,98878.97
2023-03-19T01:46:18.915Z,98865.66
2023-03-19T01:49:01.011Z,98864.38
2023-03-19T01:51:35.291Z,98863.81
2023-03-19T01:54:05.652Z,98865.38
2023-03-19T01:56:34.029Z,98868.25
2023-03-19T01:59:16.692Z,98867.28
2023-03-19T02:04:18.969Z,98870.25
2023-03-19T02:06:45.573Z,98870.41
2023-03-19T02:09:14.076Z,98878.75
2023-03-19T02:11:41.015Z,98877.28
2023-03-19T02:14:09.469Z,98878.44
2023-03-19T02:16:35.862Z,98884.09
2023-03-19T02:19:02.273Z,98877.56
2023-03-19T02:21:29.380Z,98889.91
2023-03-19T02:24:17.394Z,98878.19
2023-03-19T02:26:45.753Z,98887.69
2023-03-19T02:29:12.602Z,98891.94
2023-03-19T02:31:39.413Z,98899.56
2023-03-19T02:34:23.955Z,98902.44
2023-03-19T02:36:54.695Z,98911.19
2023-03-19T02:39:29.280Z,98895.00
2023-03-19T02:41:57.089Z,98906.59
2023-03-19T02:44:23.737Z,98905.91
2023-03-19T02:46:50.688Z,98905.94
2023-03-19T02:49:17.861Z,98907.66
2023-03-19T02:51:44.461Z,98901.47
2023-03-19T02:54:11.043Z,98898.41
2023-03-19T02:56:37.432Z,98903.47
2023-03-19T02:59:04.392Z,98902.94
2023-03-19T03:01:30.887Z,98904.22
2023-03-19T03:03:57.294Z,98901.81
2023-03-19T03:06:24.619Z,98906.06
2023-03-19T03:08:52.043Z,98905.91
2023-03-19T03:11:18.508Z,98907.31
2023-03-19T03:13:44.902Z,98915.91
2023-03-19T03:16:11.906Z,98906.56
2023-03-19T03:18:38.260Z,98900.41
2023-03-19T03:21:04.810Z,98897.63
2023-03-19T03:23:31.178Z,98892.81
2023-03-19T03:25:57.601Z,98899.00
2023-03-19T03:28:24.953Z,98904.06
2023-03-19T03:30:51.674Z,98898.13
2023-03-19T03:33:18.463Z,98893.47
2023-03-19T03:35:44.875Z,98895.56
2023-03-19T03:38:11.501Z,98895.78
2023-03-19T03:40:38.033Z,98891.13
2023-03-19T03:43:04.543Z,98882.38
2023-03-19T03:45:31.790Z,98882.78
2023-03-19T03:47:58.415Z,98878.84
2023-03-19T03:50:24.753Z,98881.47
2023-03-19T03:52:51.549Z,98877.66
2023-03-19T03:55:17.942Z,98895.69
2023-03-19T03:57:44.410Z,98914.63
2023-03-19T04:00:12.441Z,98905.13
2023-03-19T04:02:39.331Z,98907.41
2023-03-19T04:05:06.575Z,98912.47
2023-03-19T04:07:32.981Z,98918.81
2023-03-19T04:09:59.481Z,98916.00
2023-03-19T04:12:26.235Z,98912.63
2023-03-19T04:14:52.613Z,98912.09
2023-03-19T04:17:18.999Z,98916.88
2023-03-19T04:19:45.360Z,98916.34
2023-03-19T04:22:11.762Z,98914.53
2023-03-19T04:24:38.186Z,98913.81
2023-03-19T04:27:04.539Z,98917.47
2023-03-19T04:29:31.002Z,98918.50
2023-03-19T04:31:57.376Z,98908.47
2023-03-19T04:34:23.763Z,98909.56
2023-03-19T04:36:51.965Z,98899.25
2023-03-19T04:39:18.448Z,98914.84
2023-03-19T04:41:45.166Z,98918.00
2023-03-19T04:44:11.597Z,98926.66
2023-03-19T04:46:38.219Z,98928.03
2023-03-19T04:49:04.668Z,98930.78
2023-03-19T04:51:31.091Z,98941.69
2023-03-19T04:53:57.441Z,98945.47
2023-03-19T04:56:23.868Z,98949.88
2023-03-19T04:58:50.750Z,98952.41
2023-03-19T05:01:17.160Z,98953.84
2023-03-19T05:03:43.766Z,98957.91
2023-03-19T05:06:10.299Z,98953.25
2023-03-19T05:08:37.117Z,98952.56
2023-03-19T05:11:03.636Z,98956.06
2023-03-19T05:13:30.165Z,98952.25
2023-03-19T05:15:56.697Z,98957.16
2023-03-19T05:18:23.241Z,98953.22
2023-03-19T05:20:49.636Z,98964.50
2023-03-19T05:23:16.012Z,98951.09
2023-03-19T05:25:42.649Z,98954.34
2023-03-19T05:28:09.095Z,98946.97
2023-03-19T05:30:36.310Z,98942.91
2023-03-19T05:33:02.876Z,98949.38
2023-03-19T05:35:30.437Z,98947.31
2023-03-19T05:37:57.074Z,98953.38
2023-03-19T05:40:23.812Z,98963.53
2023-03-19T05:42:50.684Z,98962.00
2023-03-19T05:45:17.723Z,98969.91
2023-03-19T05:47:44.862Z,98969.22
2023-03-19T05:50:12.247Z,98972.31
2023-03-19T05:52:38.709Z,98974.25
2023-03-19T05:55:05.671Z,98978.91
2023-03-19T05:57:32.188Z,98969.06
2023-03-19T05:59:58.593Z,98971.00
2023-03-19T06:02:25.103Z,98967.16
2023-03-19T06:04:51.513Z,98967.88
2023-03-19T06:07:18.146Z,98969.13
2023-03-19T06:09:44.577Z,98969.41
2023-03-19T06:12:11.129Z,98977.25
2023-03-19T06:14:37.502Z,98976.28
2023-03-19T06:17:03.844Z,98972.63
2023-03-19T06:19:30.225Z,98971.31
2023-03-19T06:21:56.798Z,98977.94
2023-03-19T06:24:23.277Z,98979.34
2023-03-19T06:26:49.724Z,98985.69
2023-03-19T06:29:16.249Z,98981.25
2023-03-19T06:31:42.981Z,98973.22
2023-03-19T06:34:09.849Z,98979.28
2023-03-19T06:36:37.147Z,98975.91
2023-03-19T06:39:03.601Z,98985.75
2023-03-19T06:41:30.058Z,98985.84
2023-03-19T06:43:56.790Z,98982.88
2023-03-19T06:46:23.328Z,98983.69
2023-03-19T06:48:49.921Z,98990.47
2023-03-19T06:51:16.306Z,98987.34
2023-03-19T06:53:42.998Z,99006.19
2023-03-19T06:56:09.367Z,99007.34
2023-03-19T06:58:36.241Z,99002.53
2023-03-19T07:01:03.060Z,99010.28
2023-03-19T07:03:29.538Z,99017.00
2023-03-19T07:05:56.255Z,99009.81
2023-03-19T07:08:22.721Z,99013.34
2023-03-19T07:10:49.070Z,99017.56
2023-03-19T07:13:15.452Z,99010.75
2023-03-19T07:15:41.823Z,99015.81
2023-03-19T07:18:08.206Z,99018.19
2023-03-19T07:20:34.826Z,99020.19
2023-03-19T07:23:01.292Z,99023.56
2023-03-19T07:25:27.641Z,99028.03
2023-03-19T07:27:56.012Z,99044.13
2023-03-19T07:30:22.674Z,99047.78
2023-03-19T07:32:49.108Z,99044.31
2023-03-19T07:35:15.849Z,99043.00
2023-03-19T07:37:42.702Z,99042.81
2023-03-19T07:40:10.285Z,99038.50
2023-03-19T07:42:36.660Z,99054.13
2023-03-19T07:45:04.051Z,99051.00
2023-03-19T07:47:30.872Z,99056.22
2023-03-19T07:49:58.309Z,99046.22
2023-03-19T07:52:26.015Z,99043.47
2023-03-19T07:54:52.630Z,99042.28
2023-03-19T07:57:19.488Z,99047.34
2023-03-19T07:59:46.356Z,99041.88
2023-03-19T08:02:13.249Z,99042.72
2023-03-19T08:04:41.190Z,99049.25
2023-03-19T08:07:10.662Z,99047.88
2023-03-19T08:09:37.481Z,99048.72
2023-03-19T08:12:04.263Z,99052.88
2023-03-19T08:14:30.808Z,99049.16
2023-03-19T08:16:57.203Z,99054.75
2023-03-19T08:19:23.597Z,99047.34
2023-03-19T08:21:50.155Z,99045.81
2023-03-19T08:24:17.565Z,99043.34
2023-03-19T08:26:44.171Z,99052.06
2023-03-19T08:29:10.877Z,99055.13
2023-03-19T08:31:37.707Z,99052.22
2023-03-19T08:34:04.696Z,99054.75
2023-03-19T08:36:31.734Z,99059.25
2023-03-19T08:38:59.127Z,99055.72
2023-03-19T08:41:25.634Z,99062.66
2023-03-19T08:43:52.028Z,99059.59
2023-03-19T08:46:18.641Z,99062.53
2023-03-19T08:48:45.410Z,99070.59
2023-03-19T08:51:11.987Z,99062.44
2023-03-19T08:53:38.881Z,99073.47
2023-03-19T08:56:10.137Z,99077.16
2023-03-19T08:58:36.587Z,99075.47
2023-03-19T09:01:05.678Z,99081.22
2023-03-19T09:03:32.175Z,99079.00
2023-03-19T09:06:03.424Z,99078.31
2023-03-19T09:08:31.069Z,99081.47
2023-03-19T09:10:57.997Z,99090.50
2023-03-19T09:13:25.492Z,99098.19
2023-03-19T09:15:52.886Z,99097.34
2023-03-19T09:18:24.739Z,99101.06
2023-03-19T09:20:52.854Z,99107.94
2023-03-19T09:23:20.082Z,99116.78
2023-03-19T09:25:47.056Z,99115.91
2023-03-19T09:28:13.404Z,99123.91
2023-03-19T09:30:39.820Z,99130.88
2023-03-19T09:33:06.821Z,99133.41
2023-03-19T09:35:33.645Z,99133.31
2023-03-19T09:38:02.249Z,99135.47
2023-03-19T09:40:42.693Z,99143.44
2023-03-19T09:43:24.011Z,99139.75
2023-03-19T09:45:50.798Z,99141.78
2023-03-19T09:48:25.177Z,99144.78
2023-03-19T09:50:52.672Z,99143.38
2023-03-19T09:53:40.277Z,99135.22
2023-03-19T09:56:12.761Z,99141.00
2023-03-19T09:58:39.256Z,99142.34
2023-03-19T10:01:06.496Z,99133.50
2023-03-19T10:04:11.698Z,99139.97
2023-03-19T10:06:40.201Z,99142.94
2023-03-19T10:09:41.156Z,99148.22
2023-03-19T10:12:17.358Z,99139.06
2023-03-19T10:15:15.171Z,99146.22
2023-03-19T10:18:11.828Z,99137.28
2023-03-19T10:21:04.987Z,99139.72
2023-03-19T10:23:50.527Z,99138.78
2023-03-19T10:26:18.930Z,99128.00
2023-03-19T10:28:57.959Z,99131.69
2023-03-19T10:31:31.310Z,99145.34
2023-03-19T10:34:08.465Z,99140.06
2023-03-19T10:36:37.609Z,99142.75
2023-03-19T10:39:07.636Z,99141.44
2023-03-19T10:41:40.363Z,99144.13
2023-03-19T10:44:15.654Z,99140.22
2023-03-19T10:46:42.087Z,99145.75
2023-03-19T10:49:13.162Z,99144.94
2023-03-19T10:51:42.493Z,99140.75
2023-03-19T10:54:27.451Z,99149.03
2023-03-19T10:56:59.909Z,99151.91
2023-03-19T10:59:36.943Z,99145.72
2023-03-19T11:02:22.520Z,99143.75
2023-03-19T11:04:49.522Z,99142.59
2023-03-19T11:07:27.288Z,99141.47
2023-03-19T11:09:55.859Z,99144.88
2023-03-19T11:12:33.864Z,99132.94
2023-03-19T11:15:07.324Z,99131.94
2023-03-19T11:17:49.569Z,99123.84
2023-03-19T11:20:22.422Z,99129.28
2023-03-19T11:22:52.783Z,99126.41
2023-03-19T11:25:29.701Z,99125.56
2023-03-19T11:28:04.251Z,99121.50
2023-03-19T11:31:04.205Z,99120.13
2023-03-19T11:33:59.073Z,99119.13
2023-03-19T11:36:46.585Z,99119.44
2023-03-19T11:39:39.980Z,99119.13
2023-03-19T11:42:06.522Z,99118.13
2023-03-19T11:45:27.418Z,99112.56
2023-03-19T11:48:05.958Z,99121.19
2023-03-19T11:51:05.884Z,99113.41
2023-03-19T11:54:07.950Z,99115.13
2023-03-19T11:57:04.135Z,99111.09
2023-03-19T11:59:46.726Z,99118.81
2023-03-19T12:02:34.948Z,99108.53
2023-03-19T12:05:14.298Z,99117.28
2023-03-19T12:07:41.266Z,99118.81
2023-03-19T12:10:26.204Z,99103.63
2023-03-19T12:13:16.739Z,99104.78
2023-03-19T12:15:58.572Z,99103.22
2023-03-19T12:18:44.477Z,99099.44
2023-03-19T12:21:25.914Z,99093.72
2023-03-19T12:23:58.716Z,99088.81
2023-03-19T12:26:47.838Z,99086.47
2023-03-19T12:29:24.350Z,99096.94
2023-03-19T12:32:19.409Z,99090.03
2023-03-19T12:34:51.078Z,99085.22
2023-03-19T12:37:17.689Z,99086.88
2023-03-19T12:40:05.136Z,99088.47
2023-03-19T12:42:38.756Z,99081.03
2023-03-19T12:45:28.307Z,99081.81
2023-03-19T12:48:19.254Z,99083.47
2023-03-19T12:50:51.496Z,99091.47
2023-03-19T12:53:41.170Z,99096.16
2023-03-19T12:56:17.602Z,99092.31
2023-03-19T12:59:15.364Z,99093.25
2023-03-19T13:01:48.989Z,99102.09
2023-03-19T13:04:23.693Z,99102.97
2023-03-19T13:07:02.025Z,99106.88
2023-03-19T13:09:37.200Z,99111.09
2023-03-19T13:12:04.988Z,99108.41
2023-03-19T13:14:42.718Z,99118.97
2023-03-19T13:17:41.417Z,99114.56
2023-03-19T13:20:29.473Z,99115.56
2023-03-19T13:23:02.426Z,99120.59
2023-03-19T13:25:42.263Z,99123.13
2023-03-19T13:28:19.096Z,99114.72
2023-03-19T13:31:17.866Z,99118.78
2023-03-19T13:34:05.449Z,99112.22
2023-03-19T13:36:39.256Z,99122.16
2023-03-19T13:39:15.254Z,99112.72
2023-03-19T13:41:42.604Z,99120.50
2023-03-19T13:44:31.097Z,99101.81
2023-03-19T13:47:01.895Z,99107.19
2023-03-19T13:49:35.683Z,99107.88
2023-03-19T13:52:22.583Z,99099.09
2023-03-19T13:54:53.446Z,99106.19
2023-03-19T13:57:22.626Z,99104.16
2023-03-19T13:59:50.625Z,99110.06
2023-03-19T14:02:24.511Z,99105.34
2023-03-19T14:05:04.477Z,99104.66
2023-03-19T14:07:37.086Z,99109.41
2023-03-19T14:10:25.259Z,99099.97
2023-03-19T14:13:01.192Z,99104.84
2023-03-19T14:15:28.859Z,99101.63
2023-03-19T14:18:01.598Z,99102.63
2023-03-19T14:20:39.211Z,99097.75
2023-03-19T14:23:09.694Z,99100.59
2023-03-19T14:26:10.314Z,99097.59
2023-03-19T14:28:49.555Z,99095.75
2023-03-19T14:31:24.624Z,99095.59
2023-03-19T14:33:58.236Z,99091.34
2023-03-19T14:36:26.961Z,99097.53
2023-03-19T14:39:09.433Z,99100.47
2023-03-19T14:41:42.091Z,99100.34
2023-03-19T14:44:31.112Z,99089.88
2023-03-19T14:47:16.879Z,99095.00
2023-03-19T14:49:54.937Z,99086.78
2023-03-19T14:52:32.883Z,99074.16
2023-03-19T14:55:01.836Z,99081.16
2023-03-19T14:57:30.750Z,99084.25
2023-03-19T14:59:57.368Z,99082.09
2023-03-19T15:02:47.302Z,99093.56
2023-03-19T15:05:50.462Z,99094.56
2023-03-19T15:08:22.268Z,99085.47
2023-03-19T15:11:15.055Z,99090.69
2023-03-19T15:14:09.955Z,99085.63
2023-03-19T15:16:54.196Z,99087.28
2023-03-19T15:19:26.838Z,99084.56
2023-03-19T15:22:23.947Z,99085.78
2023-03-19T15:24:50.916Z,99082.59
2023-03-19T15:27:27.161Z,99073.31
2023-03-19T15:29:54.155Z,99065.41
2023-03-19T15:33:03.068Z,99072.63
2023-03-19T15:35:23.306Z,99073.41
2023-03-19T15:37:54.332Z,99074.03
2023-03-19T15:40:23.536Z,99073.25
2023-03-19T15:42:52.176Z,99081.59
2023-03-19T15:45:21.684Z,99078.94
2023-03-19T15:48:14.450Z,99080.66
2023-03-19T15:50:46.198Z,99093.81
2023-03-19T15:53:18.050Z,99100.69
2023-03-19T15:55:44.718Z,99106.47
2023-03-19T15:58:24.639Z,99103.00
2023-03-19T16:00:55.844Z,99099.69
2023-03-19T16:03:54.110Z,99090.94
2023-03-19T16:06:27.526Z,99084.06
2023-03-19T16:08:55.940Z,99094.91
2023-03-19T16:11:38.484Z,99098.41
2023-03-19T16:14:14.220Z,99093.81
2023-03-19T16:16:42.396Z,99108.31
2023-03-19T16:19:37.611Z,99112.06
2023-03-19T16:22:17.203Z,99116.13
2023-03-19T16:24:45.762Z,99127.78
2023-03-19T16:27:17.878Z,99130.28
2023-03-19T16:29:55.725Z,99131.28
2023-03-19T16:32:24.790Z,99132.81
2023-03-19T16:34:54.144Z,99137.69
2023-03-19T16:37:48.166Z,99135.97
2023-03-19T16:40:17.479Z,99135.28
2023-03-19T16:42:49.460Z,99146.38
2023-03-19T16:45:18.900Z,99157.97
2023-03-19T16:47:47.762Z,99167.84
2023-03-19T16:50:15.295Z,99173.56
2023-03-19T16:52:43.812Z,99173.66
2023-03-19T16:55:18.702Z,99180.66
2023-03-19T16:57:47.660Z,99178.13
2023-03-19T17:00:15.467Z,99184.44
2023-03-19T17:02:42.037Z,99190.78
2023-03-19T17:05:15.967Z,99190.72
2023-03-19T17:07:42.797Z,99200.44
2023-03-19T17:10:17.736Z,99201.00
2023-03-19T17:12:47.634Z,99203.66
2023-03-19T17:15:42.274Z,99209.28
2023-03-19T17:18:36.617Z,99218.81
2023-03-19T17:21:03.009Z,99223.09
2023-03-19T17:23:30.424Z,99221.72
2023-03-19T17:25:57.453Z,99215.50
2023-03-19T17:28:24.463Z,99213.56
2023-03-19T17:30:51.516Z,99222.50
2023-03-19T17:33:29.759Z,99221.19
2023-03-19T17:35:58.182Z,99232.25
2023-03-19T17:38:33.787Z,99234.53
2023-03-19T17:41:00.397Z,99236.53
2023-03-19T17:43:27.061Z,99244.41
2023-03-19T17:45:55.706Z,99250.38
2023-03-19T17:48:25.700Z,99255.38
2023-03-19T17:50:57.056Z,99252.00
2023-03-19T17:53:23.461Z,99261.19
2023-03-19T17:55:49.832Z,99265.47
2023-03-19T17:58:22.423Z,99277.00
2023-03-19T18:00:50.447Z,99283.31
2023-03-19T18:03:20.561Z,99298.63
2023-03-19T18:05:47.422Z,99303.53
2023-03-19T18:08:16.921Z,99314.22
2023-03-19T18:10:43.969Z,99321.38
2023-03-19T18:13:10.846Z,99319.88
2023-03-19T18:15:38.759Z,99330.81
2023-03-19T18:18:07.280Z,99330.50
2023-03-19T18:20:37.787Z,99335.78
2023-03-19T18:23:05.477Z,99344.28
2023-03-19T18:25:35.475Z,99346.84
2023-03-19T18:28:02.971Z,99350.09
2023-03-19T18:30:33.197Z,99353.66
2023-03-19T18:33:03.371Z,99353.41
2023-03-19T18:35:33.602Z,99369.19
2023-03-19T18:38:00.489Z,99368.38
2023-03-19T18:40:29.543Z,99374.88
2023-03-19T18:42:56.667Z,99368.13
2023-03-19T18:45:26.834Z,99373.78
2023-03-19T18:47:54.178Z,99370.69
2023-03-19T18:50:28.537Z,99381.28
2023-03-19T18:52:57.150Z,99375.47
2023-03-19T18:55:28.513Z,99387.06
2023-03-19T18:58:00.923Z,99385.53
2023-03-19T19:00:34.371Z,99389.41
2023-03-19T19:03:03.085Z,99394.38
2023-03-19T19:05:31.581Z,99397.22
2023-03-19T19:08:01.021Z,99403.41
2023-03-19T19:10:33.191Z,99405.81
2023-03-19T19:13:01.260Z,99409.47
2023-03-19T19:15:33.245Z,99415.56
2023-03-19T19:18:00.704Z,99414.84
2023-03-19T19:20:29.407Z,99424.88
2023-03-19T19:22:56.376Z,99422.06
2023-03-19T19:25:26.549Z,99423.19
2023-03-19T19:27:58.800Z,99425.03
2023-03-19T19:30:25.786Z,99427.41
2023-03-19T19:32:52.222Z,99425.00
2023-03-19T19:35:23.126Z,99432.78
2023-03-19T19:37:50.192Z,99431.06
2023-03-19T19:40:20.635Z,99432.50
2023-03-19T19:42:52.403Z,99437.31
2023-03-19T19:45:38.736Z,99433.19
2023-03-19T19:48:13.209Z,99439.81
2023-03-19T19:50:39.612Z,99443.66
2023-03-19T19:53:06.611Z,99441.50
2023-03-19T19:55:33.936Z,99454.22
2023-03-19T19:58:01.576Z,99450.84
2023-03-19T20:00:31.243Z,99463.38
2023-03-19T20:02:59.341Z,99459.09
2023-03-19T20:05:30.444Z,99457.56
2023-03-19T20:08:00.424Z,99469.97
2023-03-19T20:10:29.968Z,99461.78
2023-03-19T20:12:59.742Z,99474.22
2023-03-19T20:15:33.874Z,99474.22
2023-03-19T20:18:02.300Z,99475.72
2023-03-19T20:20:32.298Z,99483.06
2023-03-19T20:23:00.848Z,99484.06
2023-03-19T20:25:30.168Z,99485.44
2023-03-19T20:28:00.341Z,99485.16
2023-03-19T20:30:38.890Z,99488.13
2023-03-19T20:33:06.117Z,99492.50
2023-03-19T20:35:35.584Z,99496.16
2023-03-19T20:38:04.708Z,99497.03
2023-03-19T20:40:34.191Z,99505.91
2023-03-19T20:43:01.698Z,99502.97
2023-03-19T20:45:35.389Z,99508.16
2023-03-19T20:48:02.500Z,99508.00
2023-03-19T20:50:31.466Z,99514.53
2023-03-19T20:53:01.241Z,99509.16
2023-03-19T20:55:33.968Z,99508.59
2023-03-19T20:58:03.772Z,99511.53
2023-03-19T21:00:33.088Z,99517.47
2023-03-19T21:03:02.187Z,99510.69
2023-03-19T21:05:37.354Z,99521.47
2023-03-19T21:08:05.190Z,99523.16
2023-03-19T21:10:42.475Z,99529.22
2023-03-19T21:13:13.414Z,99523.72
2023-03-19T21:15:40.356Z,99528.25
2023-03-19T21:18:07.321Z,99527.53
2023-03-19T21:20:35.448Z,99529.94
2023-03-19T21:23:14.183Z,99527.56
2023-03-19T21:25:42.013Z,99520.38
2023-03-19T21:28:32.200Z,99525.03
2023-03-19T21:30:58.879Z,99535.31
2023-03-19T21:33:32.766Z,99539.16
2023-03-19T21:36:01.085Z,99535.16
2023-03-19T21:38:27.757Z,99540.69
2023-03-19T21:40:59.585Z,99540.81
2023-03-19T21:43:41.155Z,99534.22
2023-03-19T21:46:23.782Z,99529.84
2023-03-19T21:48:50.887Z,99538.13
2023-03-19T21:51:17.797Z,99542.78
2023-03-19T21:53:45.511Z,99541.56
2023-03-19T21:56:21.701Z,99530.53
2023-03-19T21:58:49.380Z,99541.19
2023-03-19T22:01:18.516Z,99534.69
2023-03-19T22:03:45.305Z,99536.44
2023-03-19T22:06:12.371Z,99532.28
2023-03-19T22:08:39.190Z,99534.81
2023-03-19T22:11:16.207Z,99534.66
2023-03-19T22:13:43.540Z,99534.66
2023-03-19T22:16:22.959Z,99532.44
2023-03-19T22:18:50.255Z,99537.22
2023-03-19T22:21:19.815Z,99537.53
2023-03-19T22:23:47.481Z,99527.03
2023-03-19T22:26:36.222Z,99537.31
2023-03-19T22:29:25.277Z,99541.25
2023-03-19T22:31:53.584Z,99541.69
2023-03-19T22:34:22.867Z,99547.63
2023-03-19T22:36:50.405Z,99548.72
2023-03-19T22:39:17.456Z,99544.81
2023-03-19T22:41:46.280Z,99548.47
2023-03-19T22:44:30.444Z,99552.88
2023-03-19T22:46:59.954Z,99551.56
2023-03-19T22:49:28.411Z,99551.84
2023-03-19T22:51:55.660Z,99553.38
2023-03-19T22:54:23.312Z,99557.22
2023-03-19T22:56:50.030Z,99559.16
2023-03-19T22:59:16.702Z,99557.03
2023-03-19T23:01:46.608Z,99548.28
2023-03-19T23:04:22.309Z,99555.44
2023-03-19T23:06:50.396Z,99561.13
2023-03-19T23:09:21.129Z,99558.84
2023-03-19T23:11:51.187Z,99566.22
2023-03-19T23:14:28.441Z,99555.88
2023-03-19T23:19:26.398Z,99562.19
2023-03-19T23:21:53.547Z,99560.34
2023-03-19T23:24:20.353Z,99556.25
2023-03-19T23:26:52.602Z,99553.97
2023-03-19T23:29:24.372Z,99563.00
2023-03-19T23:31:51.982Z,99566.41
2023-03-19T23:34:18.899Z,99568.38
2023-03-19T23:36:45.712Z,99567.63
2023-03-19T23:39:12.223Z,99566.66
2023-03-19T23:41:53.221Z,99566.00
2023-03-19T23:44:20.347Z,99571.91
2023-03-19T23:46:51.680Z,99579.22
2023-03-19T23:49:28.717Z,99578.63
2023-03-19T23:51:56.098Z,99579.50
2023-03-19T23:54:34.125Z,99595.81
2023-03-19T23:57:07.827Z,99596.16
2023-03-19T23:59:37.020Z,99605.53
